Time;durP1;ratioP1;P1;durP2;ratioP2;P2;SDS_P1;SDS_P2;PMS_P1;PMS_P2;Temp;Humidity;BMP_temperature;BMP_pressure;BME280_temperature;BME280_humidity;BME280_pressure;Samples;Min_cycle;Max_cycle;Signal;HPM_P1;HPM_P2
2022/05/26 00:00:04;;;;;;;2.58;0.98;;;21.60;99.90;;;;;;4192928;28;20219;-76
2022/05/26 00:02:07;;;;;;;1.52;1.13;;;21.60;99.90;;;;;;4192960;28;20211;-76
2022/05/26 00:04:10;;;;;;;1.35;0.98;;;21.60;99.90;;;;;;4193637;28;20223;-76
2022/05/26 00:06:16;;;;;;;1.70;0.90;;;21.60;99.90;;;;;;4193337;28;20212;-76
2022/05/26 00:08:18;;;;;;;0.98;0.88;;;21.60;99.90;;;;;;4192738;28;20223;-76
2022/05/26 00:10:20;;;;;;;3.25;0.88;;;21.60;99.90;;;;;;4192344;28;20223;-76
2022/05/26 00:12:23;;;;;;;2.05;1.10;;;21.60;99.90;;;;;;4192639;28;20249;-76
2022/05/26 00:14:26;;;;;;;1.98;1.00;;;21.60;99.90;;;;;;4192284;28;20219;-76
2022/05/26 00:16:28;;;;;;;1.55;1.10;;;21.60;99.90;;;;;;4193182;28;20234;-76
2022/05/26 00:18:30;;;;;;;2.55;1.00;;;21.60;99.90;;;;;;4192850;28;20622;-76
2022/05/26 00:20:33;;;;;;;1.40;1.08;;;21.60;99.90;;;;;;4192938;28;20219;-77
2022/05/26 00:22:37;;;;;;;1.88;0.98;;;21.60;99.90;;;;;;4191487;28;20288;-76
2022/05/26 00:24:39;;;;;;;3.58;1.00;;;21.60;99.90;;;;;;4191993;28;20211;-76
2022/05/26 00:26:41;;;;;;;1.70;0.88;;;21.60;99.90;;;;;;4192785;28;20254;-76
2022/05/26 00:28:43;;;;;;;2.00;0.85;;;21.60;99.90;;;;;;4192769;28;20218;-76
2022/05/26 00:30:46;;;;;;;1.88;1.00;;;21.60;99.90;;;;;;4192470;28;20261;-77
2022/05/26 00:32:48;;;;;;;1.95;0.90;;;21.60;99.90;;;;;;4192026;28;20261;-76
2022/05/26 00:34:50;;;;;;;2.42;1.10;;;21.60;99.90;;;;;;4192733;28;20215;-76
2022/05/26 00:36:53;;;;;;;1.33;1.00;;;21.60;99.90;;;;;;4191885;28;20235;-76
2022/05/26 00:38:56;;;;;;;2.53;1.08;;;21.60;99.90;;;;;;4191985;28;20623;-76
2022/05/26 00:41:03;;;;;;;3.20;1.38;;;21.60;99.90;;;;;;4192547;28;20556;-77
2022/05/26 00:43:06;;;;;;;5.28;1.35;;;21.60;99.90;;;;;;4190845;28;20233;-76
2022/05/26 00:45:10;;;;;;;5.95;1.58;;;21.60;99.90;;;;;;4192979;28;20230;-76
2022/05/26 00:47:16;;;;;;;4.20;1.17;;;21.50;99.90;;;;;;4192495;28;20215;-77
2022/05/26 00:49:25;;;;;;;4.25;1.25;;;21.60;99.90;;;;;;4191317;28;20227;-76
2022/05/26 00:51:31;;;;;;;3.13;1.35;;;21.60;99.90;;;;;;4192326;28;20210;-76
2022/05/26 00:53:39;;;;;;;2.08;1.40;;;21.50;99.90;;;;;;4192275;28;20223;-76
2022/05/26 00:55:50;;;;;;;2.80;1.05;;;21.60;99.90;;;;;;4191167;28;20347;-76
2022/05/26 00:57:59;;;;;;;2.55;0.90;;;21.60;99.90;;;;;;4192977;28;20214;-76
2022/05/26 01:00:05;;;;;;;2.70;1.20;;;21.60;99.90;;;;;;4191788;28;20253;-76
2022/05/26 01:02:08;;;;;;;2.95;1.50;;;21.60;99.90;;;;;;4192139;28;20244;-77
2022/05/26 01:04:15;;;;;;;2.75;1.30;;;21.60;99.90;;;;;;4191301;28;20265;-76
2022/05/26 01:06:23;;;;;;;2.63;1.20;;;21.60;99.90;;;;;;4190870;28;20219;-77
2022/05/26 01:08:32;;;;;;;3.38;1.20;;;21.60;99.90;;;;;;4191222;28;20226;-76
2022/05/26 01:10:34;;;;;;;3.67;1.30;;;21.50;99.90;;;;;;4190654;28;20218;-76
2022/05/26 01:12:38;;;;;;;3.58;1.30;;;21.50;99.90;;;;;;4191624;28;20668;-76
2022/05/26 01:14:44;;;;;;;3.20;1.27;;;21.50;99.90;;;;;;4191281;28;20227;-76
2022/05/26 01:16:57;;;;;;;1.73;1.10;;;21.60;99.90;;;;;;4191780;28;20759;-76
2022/05/26 01:19:26;;;;;;;1.98;1.00;;;21.50;99.90;;;;;;4191272;28;20211;-77
2022/05/26 01:21:33;;;;;;;4.28;1.13;;;21.60;99.90;;;;;;4190804;28;20219;-77
2022/05/26 01:24:01;;;;;;;4.18;1.33;;;21.50;99.90;;;;;;4191506;28;20222;-76
2022/05/26 01:26:34;;;;;;;4.18;1.70;;;21.50;99.90;;;;;;4191398;28;20709;-77
2022/05/26 01:28:59;;;;;;;3.13;1.52;;;21.60;99.90;;;;;;4190768;28;20223;-76
2022/05/26 01:31:21;;;;;;;4.60;1.10;;;21.50;99.90;;;;;;4190492;28;20219;-76
2022/05/26 01:33:35;;;;;;;1.92;1.10;;;21.60;99.90;;;;;;4191350;28;20294;-76
2022/05/26 01:35:42;;;;;;;4.05;1.40;;;21.50;99.90;;;;;;4190935;28;20219;-76
2022/05/26 01:37:53;;;;;;;3.25;1.38;;;21.50;99.90;;;;;;4190370;28;20312;-76
2022/05/26 01:40:03;;;;;;;2.75;1.20;;;21.50;99.90;;;;;;4190822;28;20219;-76
2022/05/26 01:42:15;;;;;;;5.05;1.83;;;21.50;99.90;;;;;;4191107;28;20273;-76
2022/05/26 01:44:27;;;;;;;4.53;1.42;;;21.50;99.90;;;;;;4191070;28;20230;-76
2022/05/26 01:46:37;;;;;;;2.83;1.38;;;21.50;99.90;;;;;;4191038;28;20615;-76
2022/05/26 01:48:46;;;;;;;2.65;1.30;;;21.50;99.90;;;;;;4189569;28;20222;-76
2022/05/26 01:50:54;;;;;;;3.33;1.58;;;21.50;99.90;;;;;;4190312;28;20214;-76
2022/05/26 01:53:08;;;;;;;2.80;1.23;;;21.50;99.90;;;;;;4191322;28;20664;-76
2022/05/26 01:55:17;;;;;;;6.47;1.48;;;21.50;99.90;;;;;;4191075;28;20256;-76
2022/05/26 01:57:24;;;;;;;3.75;1.50;;;21.50;99.90;;;;;;4190241;28;20234;-76
2022/05/26 01:59:30;;;;;;;4.07;1.75;;;21.50;99.90;;;;;;4191710;28;20260;-76
2022/05/26 02:01:38;;;;;;;3.05;1.27;;;21.50;99.90;;;;;;4191480;28;20223;-76
2022/05/26 02:03:44;;;;;;;2.67;1.52;;;21.50;99.90;;;;;;4190795;28;20294;-76
2022/05/26 02:05:50;;;;;;;4.57;1.30;;;21.50;99.90;;;;;;4191447;28;20215;-76
2022/05/26 02:07:58;;;;;;;2.72;1.30;;;21.50;99.90;;;;;;4190921;28;20269;-76
2022/05/26 02:10:04;;;;;;;2.83;1.40;;;21.50;99.90;;;;;;4190226;28;20307;-76
2022/05/26 02:12:11;;;;;;;3.25;1.40;;;21.50;99.90;;;;;;4190984;28;20347;-76
2022/05/26 02:14:17;;;;;;;4.20;1.58;;;21.50;99.90;;;;;;4193183;28;20273;-76
2022/05/26 02:16:24;;;;;;;3.30;1.60;;;21.50;99.90;;;;;;4193902;28;20273;-76
2022/05/26 02:18:31;;;;;;;2.67;1.40;;;21.50;99.90;;;;;;4193261;28;20651;-76
2022/05/26 02:20:40;;;;;;;4.05;1.33;;;21.50;99.90;;;;;;4193860;28;20610;-76
2022/05/26 02:22:49;;;;;;;3.72;1.27;;;21.50;99.90;;;;;;4193435;28;21361;-76
2022/05/26 02:24:56;;;;;;;3.35;1.40;;;21.50;99.90;;;;;;4193993;28;20214;-76
2022/05/26 02:26:59;;;;;;;3.25;1.25;;;21.50;99.90;;;;;;4194294;28;20214;-76
2022/05/26 02:31:26;;;;;;;3.90;1.20;;;21.50;99.90;;;;;;4193750;28;20207;-76
2022/05/26 02:33:31;;;;;;;4.03;1.40;;;21.40;99.90;;;;;;4193906;28;20289;-76
2022/05/26 02:35:38;;;;;;;3.13;1.40;;;21.50;99.90;;;;;;4193234;28;20219;-76
2022/05/26 02:37:41;;;;;;;2.67;1.25;;;21.50;99.90;;;;;;4192703;28;20265;-76
2022/05/26 02:39:43;;;;;;;3.20;1.52;;;21.50;99.90;;;;;;4193819;28;20223;-76
2022/05/26 02:41:45;;;;;;;3.35;1.40;;;21.50;99.90;;;;;;4193258;28;20713;-76
2022/05/26 02:43:48;;;;;;;4.55;1.75;;;21.40;99.90;;;;;;4193424;28;20264;-76
2022/05/26 02:46:06;;;;;;;4.97;1.75;;;21.40;99.90;;;;;;4192940;28;20998;-76
2022/05/26 02:48:22;;;;;;;4.05;1.52;;;21.40;99.90;;;;;;4192783;28;20215;-76
2022/05/26 02:50:38;;;;;;;3.38;1.38;;;21.40;99.90;;;;;;4193031;28;20227;-76
2022/05/26 02:52:47;;;;;;;4.32;1.60;;;21.50;99.90;;;;;;4192025;28;20219;-76
2022/05/26 02:54:58;;;;;;;6.18;1.70;;;21.50;99.90;;;;;;4193255;28;20222;-76
2022/05/26 02:57:13;;;;;;;4.00;1.75;;;21.40;99.90;;;;;;4193235;28;20280;-76
2022/05/26 02:59:22;;;;;;;4.00;1.50;;;21.50;99.90;;;;;;4193156;28;20226;-76
2022/05/26 03:01:29;;;;;;;3.53;1.70;;;21.40;99.90;;;;;;4193061;28;20670;-76
2022/05/26 03:03:36;;;;;;;3.45;1.70;;;21.40;99.90;;;;;;4192948;28;20268;-76
2022/05/26 03:05:45;;;;;;;4.00;1.65;;;21.40;99.90;;;;;;4192415;28;20227;-76
2022/05/26 03:07:52;;;;;;;3.45;1.70;;;21.40;99.90;;;;;;4193131;28;20215;-76
2022/05/26 03:09:55;;;;;;;3.75;1.40;;;21.40;99.90;;;;;;4192343;28;20241;-76
2022/05/26 03:11:58;;;;;;;4.03;1.80;;;21.40;99.90;;;;;;4192634;28;20257;-76
2022/05/26 03:14:01;;;;;;;4.70;1.58;;;21.50;99.90;;;;;;4193101;28;20223;-77
2022/05/26 03:16:04;;;;;;;4.13;1.58;;;21.50;99.90;;;;;;4193379;28;20223;-76
2022/05/26 03:18:07;;;;;;;3.55;1.55;;;21.40;99.90;;;;;;4192260;28;20239;-76
2022/05/26 03:20:10;;;;;;;5.68;1.63;;;21.40;99.90;;;;;;4192732;28;20223;-76
2022/05/26 03:22:14;;;;;;;3.45;1.85;;;21.40;99.90;;;;;;4192272;28;20280;-76
2022/05/26 03:24:16;;;;;;;5.10;1.90;;;21.40;99.90;;;;;;4191768;28;20215;-76
2022/05/26 03:26:19;;;;;;;2.97;1.35;;;21.40;99.90;;;;;;4192449;28;20219;-76
2022/05/26 03:28:21;;;;;;;4.03;1.60;;;21.40;99.90;;;;;;4190099;28;20223;-76
2022/05/26 03:30:26;;;;;;;4.28;2.10;;;21.40;99.90;;;;;;4193370;28;20624;-76
2022/05/26 03:32:28;;;;;;;5.47;1.90;;;21.40;99.90;;;;;;4192712;28;20211;-76
2022/05/26 03:41:28;;;;;;;4.20;1.40;;;21.40;99.90;;;;;;4192429;28;20207;-76
2022/05/26 03:43:35;;;;;;;3.97;1.48;;;21.40;99.90;;;;;;4191279;28;20287;-77
2022/05/26 03:45:38;;;;;;;2.78;1.63;;;21.40;99.90;;;;;;4191785;28;20260;-76
2022/05/26 03:47:40;;;;;;;7.30;2.05;;;21.40;99.90;;;;;;4192440;28;20207;-76
2022/05/26 03:49:42;;;;;;;3.97;1.50;;;21.40;99.90;;;;;;4192434;28;20227;-77
2022/05/26 03:51:45;;;;;;;2.83;1.70;;;21.40;99.90;;;;;;4192652;28;20274;-76
2022/05/26 03:53:47;;;;;;;3.95;1.88;;;21.40;99.90;;;;;;4193067;28;20264;-76
2022/05/26 03:55:51;;;;;;;5.47;1.92;;;21.40;99.90;;;;;;4192019;28;20223;-76
2022/05/26 03:57:54;;;;;;;4.88;1.92;;;21.40;99.90;;;;;;4192035;28;20246;-76
2022/05/26 03:59:57;;;;;;;4.72;1.75;;;21.40;99.90;;;;;;4192339;28;20264;-76
2022/05/26 04:01:59;;;;;;;4.40;2.03;;;21.40;99.90;;;;;;4191846;28;20666;-76
2022/05/26 04:04:01;;;;;;;6.13;1.98;;;21.30;99.90;;;;;;4192190;28;20269;-76
2022/05/26 04:06:04;;;;;;;2.53;1.63;;;21.40;99.90;;;;;;4191991;28;20227;-76
2022/05/26 04:08:07;;;;;;;3.13;1.80;;;21.40;99.90;;;;;;4192271;28;20215;-76
2022/05/26 04:10:12;;;;;;;6.45;1.80;;;21.40;99.90;;;;;;4175866;28;20722;-77
2022/05/26 04:12:18;;;;;;;7.30;2.15;;;21.40;99.90;;;;;;4175125;28;20224;-76
2022/05/26 04:14:21;;;;;;;4.88;1.92;;;21.40;99.90;;;;;;4175276;28;20809;-76
2022/05/26 04:16:24;;;;;;;4.15;1.83;;;21.40;99.90;;;;;;4175625;28;20224;-76
2022/05/26 04:18:27;;;;;;;3.15;1.80;;;21.40;99.90;;;;;;4175637;28;20289;-76
2022/05/26 04:20:29;;;;;;;3.05;1.98;;;21.40;99.90;;;;;;4176196;28;20220;-76
2022/05/26 04:22:31;;;;;;;3.67;1.92;;;21.40;99.90;;;;;;4176124;28;20668;-77
2022/05/26 04:24:34;;;;;;;3.80;1.80;;;21.40;99.90;;;;;;4176046;28;20300;-76
2022/05/26 04:26:36;;;;;;;5.22;1.95;;;21.40;99.90;;;;;;4172912;28;20660;-76
2022/05/26 04:28:40;;;;;;;4.22;1.92;;;21.40;99.90;;;;;;4174422;28;20215;-76
2022/05/26 04:30:42;;;;;;;4.38;2.08;;;21.30;99.90;;;;;;4175555;28;20237;-76
2022/05/26 04:32:44;;;;;;;5.05;2.10;;;21.40;99.90;;;;;;4175559;28;20224;-76
2022/05/26 04:34:48;;;;;;;8.05;2.25;;;21.40;99.90;;;;;;4175188;28;20250;-77
2022/05/26 04:36:50;;;;;;;4.18;1.67;;;21.40;99.90;;;;;;4175669;28;20257;-77
2022/05/26 04:38:53;;;;;;;4.78;1.85;;;21.40;99.90;;;;;;4175962;28;20573;-76
2022/05/26 04:40:59;;;;;;;4.13;1.85;;;21.40;99.90;;;;;;4175889;28;20623;-76
2022/05/26 04:43:01;;;;;;;6.53;2.15;;;21.40;99.90;;;;;;4175675;28;20211;-77
2022/05/26 04:45:07;;;;;;;4.93;2.08;;;21.40;99.90;;;;;;4176008;28;21100;-76
2022/05/26 04:47:09;;;;;;;5.95;2.28;;;21.30;99.90;;;;;;4174373;28;20211;-77
2022/05/26 04:49:12;;;;;;;4.18;2.10;;;21.40;99.90;;;;;;4175738;28;20204;-76
2022/05/26 04:51:14;;;;;;;5.72;1.95;;;21.30;99.90;;;;;;4175891;28;20216;-76
2022/05/26 04:53:17;;;;;;;5.40;1.77;;;21.30;99.90;;;;;;4176504;28;20270;-76
2022/05/26 04:55:19;;;;;;;6.10;2.03;;;21.30;99.90;;;;;;4176144;28;20300;-76
2022/05/26 04:57:24;;;;;;;5.95;1.90;;;21.40;99.90;;;;;;4175479;28;20573;-76
2022/05/26 04:59:27;;;;;;;4.20;1.95;;;21.40;99.90;;;;;;4176072;28;20244;-76
2022/05/26 05:01:30;;;;;;;4.38;1.88;;;21.30;99.90;;;;;;4175832;28;20245;-76
2022/05/26 05:03:33;;;;;;;3.67;1.73;;;21.40;99.90;;;;;;4175292;28;20293;-76
2022/05/26 05:05:35;;;;;;;3.50;1.75;;;21.30;99.90;;;;;;4175743;28;20224;-76
2022/05/26 05:07:38;;;;;;;5.55;1.80;;;21.30;99.90;;;;;;4175878;28;20273;-76
2022/05/26 05:09:41;;;;;;;5.07;1.85;;;21.30;99.90;;;;;;4188424;28;20243;-76
2022/05/26 05:11:43;;;;;;;6.13;2.58;;;21.40;99.90;;;;;;4192456;28;20264;-76
2022/05/26 05:13:46;;;;;;;5.65;2.28;;;21.40;99.90;;;;;;4192140;28;20264;-76
2022/05/26 05:15:54;;;;;;;5.72;1.95;;;21.40;99.90;;;;;;4192372;28;20602;-77
2022/05/26 05:17:58;;;;;;;5.03;1.98;;;21.30;99.90;;;;;;4191364;28;20226;-76
2022/05/26 05:20:00;;;;;;;5.22;2.08;;;21.40;99.90;;;;;;4192732;28;20269;-76
2022/05/26 05:22:05;;;;;;;4.68;2.05;;;21.40;99.90;;;;;;4192537;28;20219;-77
2022/05/26 05:24:14;;;;;;;4.00;2.00;;;21.40;99.90;;;;;;4191083;28;20227;-76
2022/05/26 05:26:20;;;;;;;3.85;1.85;;;21.40;99.90;;;;;;4191084;28;20634;-76
2022/05/26 05:28:27;;;;;;;6.78;2.28;;;21.40;99.90;;;;;;4191550;28;20272;-76
2022/05/26 05:30:33;;;;;;;5.20;1.92;;;21.40;99.90;;;;;;4190741;28;20261;-76
2022/05/26 05:32:43;;;;;;;7.78;2.25;;;21.40;99.90;;;;;;4191469;28;20743;-76
2022/05/26 05:34:50;;;;;;;6.40;2.10;;;21.40;99.90;;;;;;4191068;28;20613;-76
2022/05/26 05:36:53;;;;;;;5.35;2.05;;;21.40;99.90;;;;;;4190894;28;20852;-76
2022/05/26 05:38:56;;;;;;;5.55;2.20;;;21.40;99.90;;;;;;4191349;28;20235;-76
2022/05/26 05:40:59;;;;;;;5.53;1.90;;;21.40;99.90;;;;;;4191840;28;20215;-76
2022/05/26 05:43:02;;;;;;;5.80;2.00;;;21.40;99.90;;;;;;4191327;28;20223;-76
2022/05/26 05:45:05;;;;;;;4.45;1.88;;;21.40;99.90;;;;;;4192037;28;20234;-76
2022/05/26 05:47:07;;;;;;;5.57;2.05;;;21.40;99.90;;;;;;4191955;28;20211;-77
2022/05/26 05:49:10;;;;;;;7.55;2.00;;;21.40;99.90;;;;;;4194493;28;20199;-77
2022/05/26 05:51:15;;;;;;;5.63;2.33;;;21.50;99.90;;;;;;4194916;28;20668;-76
2022/05/26 05:53:18;;;;;;;6.35;2.38;;;21.40;99.90;;;;;;4193287;28;20709;-77
2022/05/26 05:55:21;;;;;;;7.20;2.63;;;21.40;99.90;;;;;;4194972;28;20689;-76
2022/05/26 05:57:23;;;;;;;5.65;2.30;;;21.40;99.90;;;;;;4194927;28;20211;-76
2022/05/26 05:59:25;;;;;;;6.82;2.60;;;21.40;99.90;;;;;;4177002;28;20642;-76
2022/05/26 06:01:28;;;;;;;4.78;2.28;;;21.40;99.90;;;;;;4194461;28;20215;-76
2022/05/26 06:03:32;;;;;;;4.93;2.40;;;21.40;99.90;;;;;;4194991;28;20249;-76
2022/05/26 06:05:35;;;;;;;5.20;2.53;;;21.40;99.90;;;;;;4194372;28;20223;-76
2022/05/26 06:07:40;;;;;;;5.25;2.63;;;21.50;99.90;;;;;;4194581;28;20265;-76
2022/05/26 06:09:43;;;;;;;5.28;2.08;;;21.40;99.90;;;;;;4194201;28;20360;-76
2022/05/26 06:11:46;;;;;;;4.97;2.10;;;21.50;99.90;;;;;;4193786;28;20725;-76
2022/05/26 06:13:48;;;;;;;5.88;2.03;;;21.50;99.90;;;;;;4194069;28;20211;-77
2022/05/26 06:15:50;;;;;;;5.03;2.38;;;21.50;99.90;;;;;;4194412;28;20219;-76
2022/05/26 06:17:53;;;;;;;4.78;2.25;;;21.50;99.90;;;;;;4194070;28;20261;-76
2022/05/26 06:19:55;;;;;;;4.10;1.67;;;21.50;99.90;;;;;;4194045;28;20247;-76
2022/05/26 06:21:58;;;;;;;5.43;2.10;;;21.50;99.90;;;;;;4194016;28;20219;-76
2022/05/26 06:24:02;;;;;;;4.97;2.45;;;21.50;99.90;;;;;;4193314;28;20264;-79
2022/05/26 06:26:04;;;;;;;6.00;2.25;;;21.50;99.90;;;;;;4194691;28;20211;-79
2022/05/26 06:30:30;;;;;;;7.30;2.40;;;21.50;99.90;;;;;;4194886;28;20199;-75
2022/05/26 06:37:28;;;;;;;6.78;2.67;;;21.50;99.90;;;;;;4194607;28;20195;-75
2022/05/26 06:39:31;;;;;;;4.90;2.33;;;21.50;99.90;;;;;;4193175;28;20261;-75
2022/05/26 06:44:09;;;;;;;4.95;2.50;;;21.50;99.90;;;;;;4127006;28;20271;-74
2022/05/26 06:46:11;;;;;;;5.65;2.10;;;21.50;99.90;;;;;;4125700;28;20261;-75
2022/05/26 06:48:14;;;;;;;5.53;2.30;;;21.50;99.90;;;;;;4126039;28;20729;-75
2022/05/26 06:50:16;;;;;;;4.95;2.20;;;21.50;99.90;;;;;;4188169;28;20215;-76
2022/05/26 06:52:22;;;;;;;5.10;2.33;;;21.50;99.90;;;;;;4193471;28;20265;-75
2022/05/26 06:54:24;;;;;;;4.65;2.05;;;21.60;99.90;;;;;;4193834;28;20223;-75
2022/05/26 06:56:28;;;;;;;4.78;2.33;;;21.50;99.90;;;;;;4194244;28;20269;-75
2022/05/26 06:58:31;;;;;;;5.57;2.28;;;21.50;99.90;;;;;;4194233;28;20215;-75
2022/05/26 07:00:33;;;;;;;4.25;2.17;;;21.60;99.90;;;;;;4193953;28;20234;-75
2022/05/26 07:02:38;;;;;;;4.90;2.40;;;21.60;99.90;;;;;;4193458;28;20652;-75
2022/05/26 07:04:42;;;;;;;5.88;2.38;;;21.50;99.90;;;;;;4193531;28;20227;-75
2022/05/26 07:06:48;;;;;;;6.57;2.13;;;21.50;99.90;;;;;;4192951;28;20280;-75
2022/05/26 07:08:51;;;;;;;5.63;2.17;;;21.50;99.90;;;;;;4193070;28;20234;-75
2022/05/26 07:10:54;;;;;;;6.43;2.03;;;21.60;99.90;;;;;;4193029;28;20268;-75
2022/05/26 07:12:58;;;;;;;7.90;2.63;;;21.60;99.90;;;;;;4192810;28;20938;-75
2022/05/26 07:15:00;;;;;;;7.05;2.58;;;21.50;99.90;;;;;;4193116;28;20265;-76
2022/05/26 07:17:03;;;;;;;4.30;2.15;;;21.60;99.90;;;;;;4192815;28;20207;-75
2022/05/26 07:19:05;;;;;;;6.10;2.63;;;21.50;99.90;;;;;;4193105;28;20709;-75
2022/05/26 07:21:09;;;;;;;5.55;2.38;;;21.60;99.90;;;;;;4192225;28;20269;-75
2022/05/26 07:23:11;;;;;;;5.00;2.28;;;21.60;99.90;;;;;;4191782;28;20215;-75
2022/05/26 07:25:14;;;;;;;6.93;2.90;;;21.70;99.90;;;;;;4192359;28;20215;-76
2022/05/26 07:27:17;;;;;;;5.90;2.40;;;21.70;99.90;;;;;;4192887;28;20218;-75
2022/05/26 07:29:20;;;;;;;6.82;2.65;;;21.70;99.90;;;;;;4192889;28;20226;-75
2022/05/26 07:31:23;;;;;;;4.88;2.55;;;21.70;99.90;;;;;;4192708;28;20219;-76
2022/05/26 07:33:25;;;;;;;6.88;2.47;;;21.70;99.90;;;;;;4192857;28;20265;-75
2022/05/26 07:35:27;;;;;;;5.32;2.20;;;21.70;99.90;;;;;;4192659;28;20215;-75
2022/05/26 07:42:12;;;;;;;6.40;2.60;;;21.80;99.90;;;;;;4192609;28;20203;-75
2022/05/26 07:44:16;;;;;;;5.22;2.10;;;21.80;99.90;;;;;;4192712;28;20626;-75
2022/05/26 07:46:21;;;;;;;6.35;2.45;;;21.80;99.90;;;;;;4192431;28;20268;-75
2022/05/26 07:48:24;;;;;;;7.18;2.80;;;21.70;99.90;;;;;;4192586;28;20714;-75
2022/05/26 07:50:26;;;;;;;5.65;2.88;;;21.80;99.90;;;;;;4192698;28;20207;-76
2022/05/26 07:52:29;;;;;;;6.13;2.42;;;21.80;99.90;;;;;;4193240;28;20230;-75
2022/05/26 07:54:31;;;;;;;5.75;2.60;;;21.80;99.90;;;;;;4192604;28;20223;-75
2022/05/26 07:56:37;;;;;;;6.53;2.30;;;21.80;99.90;;;;;;4192242;28;20215;-75
2022/05/26 07:58:40;;;;;;;7.38;2.75;;;21.80;99.90;;;;;;4192082;28;20272;-75
2022/05/26 08:00:42;;;;;;;5.93;2.72;;;21.80;99.90;;;;;;4192298;28;20231;-75
2022/05/26 08:02:46;;;;;;;6.80;2.60;;;21.80;99.90;;;;;;4192596;28;20949;-75
2022/05/26 08:04:49;;;;;;;5.00;2.45;;;21.80;99.90;;;;;;4192442;28;20257;-75
2022/05/26 08:06:51;;;;;;;4.35;2.22;;;21.80;99.90;;;;;;4192496;28;20219;-75
2022/05/26 08:08:54;;;;;;;7.03;2.63;;;21.90;99.90;;;;;;4192411;28;20276;-75
2022/05/26 08:10:56;;;;;;;5.72;2.30;;;21.80;99.90;;;;;;4191444;28;20203;-75
2022/05/26 08:12:58;;;;;;;5.28;2.60;;;21.90;99.90;;;;;;4192735;28;20328;-75
2022/05/26 08:15:00;;;;;;;6.03;2.47;;;21.90;99.90;;;;;;4191790;28;20211;-75
2022/05/26 08:17:03;;;;;;;6.20;2.58;;;21.90;99.90;;;;;;4192246;28;20219;-75
2022/05/26 08:19:07;;;;;;;5.18;2.45;;;21.80;99.90;;;;;;4193179;28;20264;-75
2022/05/26 08:21:12;;;;;;;4.95;2.40;;;21.90;99.90;;;;;;4191747;28;20235;-75
2022/05/26 08:23:14;;;;;;;5.10;2.35;;;21.90;99.90;;;;;;4190892;28;20223;-76
2022/05/26 08:25:17;;;;;;;5.40;2.35;;;21.90;99.90;;;;;;4192138;28;20268;-75
2022/05/26 08:27:19;;;;;;;4.05;2.00;;;21.90;99.90;;;;;;4192285;28;20300;-75
2022/05/26 08:29:21;;;;;;;4.90;2.70;;;21.90;99.90;;;;;;4191728;28;20261;-75
2022/05/26 08:31:24;;;;;;;6.00;2.70;;;21.90;99.90;;;;;;4192048;28;20300;-76
2022/05/26 08:33:27;;;;;;;4.78;2.20;;;21.90;99.90;;;;;;4192783;28;20284;-76
2022/05/26 08:35:31;;;;;;;5.72;2.67;;;21.90;99.90;;;;;;4192869;28;20636;-75
2022/05/26 08:37:34;;;;;;;5.68;2.45;;;21.90;99.90;;;;;;4192091;28;20946;-75
2022/05/26 08:39:36;;;;;;;4.85;2.67;;;21.90;99.90;;;;;;4191828;28;20291;-75
2022/05/26 08:41:42;;;;;;;5.15;2.60;;;21.90;99.90;;;;;;4192059;28;20234;-75
2022/05/26 08:43:48;;;;;;;6.50;2.55;;;22.00;99.90;;;;;;4191299;28;20219;-75
2022/05/26 08:45:52;;;;;;;5.35;2.38;;;21.90;99.90;;;;;;4191838;28;20261;-75
2022/05/26 08:47:55;;;;;;;5.90;2.55;;;21.90;99.90;;;;;;4192031;28;20230;-75
2022/05/26 08:50:03;;;;;;;7.05;2.70;;;22.00;99.90;;;;;;4191863;28;20353;-75
2022/05/26 08:52:14;;;;;;;5.85;2.40;;;22.00;99.90;;;;;;4191295;28;20214;-76
2022/05/26 08:54:24;;;;;;;6.15;2.25;;;22.00;99.90;;;;;;4192155;28;20563;-75
2022/05/26 08:56:28;;;;;;;4.50;2.30;;;22.00;99.90;;;;;;4190977;28;20252;-75
2022/05/26 08:58:37;;;;;;;5.45;2.47;;;22.00;99.90;;;;;;4192080;28;20222;-75
2022/05/26 09:00:42;;;;;;;5.65;2.53;;;22.00;99.90;;;;;;4191637;28;20288;-75
2022/05/26 09:02:45;;;;;;;5.65;2.38;;;21.90;99.90;;;;;;4191494;28;20269;-75
2022/05/26 09:04:47;;;;;;;6.82;2.30;;;22.00;99.90;;;;;;4191990;28;20284;-76
2022/05/26 09:13:55;;;;;;;6.95;2.67;;;22.00;99.90;;;;;;4175994;28;20208;-75
2022/05/26 09:15:59;;;;;;;7.10;2.30;;;22.00;99.90;;;;;;4175344;28;20684;-75
2022/05/26 09:18:11;;;;;;;7.88;2.88;;;22.00;99.90;;;;;;4175343;28;20927;-75
2022/05/26 09:20:32;;;;;;;7.25;2.30;;;22.00;99.90;;;;;;4174671;28;20223;-76
2022/05/26 09:22:41;;;;;;;5.60;2.10;;;22.00;99.90;;;;;;4177637;28;20219;-75
2022/05/26 09:24:45;;;;;;;7.63;2.60;;;22.00;99.90;;;;;;4178238;28;20635;-76
2022/05/26 09:26:49;;;;;;;6.75;2.58;;;22.00;99.90;;;;;;4178623;28;20273;-75
2022/05/26 09:28:54;;;;;;;5.35;2.47;;;22.00;99.90;;;;;;4178639;28;20261;-75
2022/05/26 09:30:57;;;;;;;4.95;2.13;;;22.00;99.90;;;;;;4178572;28;20671;-75
2022/05/26 09:32:59;;;;;;;4.25;2.17;;;22.00;99.90;;;;;;4178426;28;20245;-75
2022/05/26 09:35:07;;;;;;;4.43;2.33;;;22.00;99.90;;;;;;4178977;28;20829;-75
2022/05/26 09:37:10;;;;;;;6.72;2.40;;;22.00;99.90;;;;;;4178513;28;20262;-76
2022/05/26 09:39:13;;;;;;;6.07;2.50;;;22.10;99.90;;;;;;4178931;28;20220;-76
2022/05/26 09:41:17;;;;;;;5.47;2.25;;;22.10;99.90;;;;;;4178123;28;20255;-76
2022/05/26 09:43:27;;;;;;;3.63;2.10;;;22.10;99.90;;;;;;4177999;28;20269;-77
2022/05/26 09:45:35;;;;;;;5.45;2.35;;;22.10;99.90;;;;;;4179148;28;20295;-75
2022/05/26 09:47:40;;;;;;;6.10;2.47;;;22.10;99.90;;;;;;4178071;28;20310;-75
2022/05/26 09:49:43;;;;;;;6.25;2.60;;;22.00;99.90;;;;;;4178522;28;20266;-75
2022/05/26 09:51:46;;;;;;;5.72;2.30;;;22.00;99.90;;;;;;4178426;28;20629;-76
2022/05/26 09:53:51;;;;;;;4.20;2.40;;;22.10;99.90;;;;;;4178098;28;20223;-75
2022/05/26 09:55:54;;;;;;;5.25;2.33;;;22.00;99.90;;;;;;4178827;28;20269;-75
2022/05/26 09:58:06;;;;;;;5.00;2.40;;;22.10;99.90;;;;;;4177810;28;20550;-75
2022/05/26 10:00:31;;;;;;;5.90;2.38;;;22.00;99.90;;;;;;4177605;28;20270;-75
2022/05/26 10:02:38;;;;;;;6.40;2.50;;;22.10;99.90;;;;;;4177264;28;20265;-75
2022/05/26 10:04:54;;;;;;;6.03;2.45;;;22.10;99.90;;;;;;4178017;28;20220;-76
2022/05/26 10:07:02;;;;;;;5.18;2.08;;;22.10;99.90;;;;;;4177366;28;20314;-76
2022/05/26 10:09:21;;;;;;;3.80;2.00;;;22.10;99.90;;;;;;4183957;28;20295;-75
2022/05/26 10:11:37;;;;;;;6.80;2.63;;;22.10;99.90;;;;;;4194060;28;20721;-75
2022/05/26 10:13:55;;;;;;;4.00;2.20;;;22.10;99.90;;;;;;4193609;28;20277;-76
2022/05/26 10:16:08;;;;;;;4.15;2.25;;;22.10;99.90;;;;;;4194142;28;20218;-75
2022/05/26 10:18:24;;;;;;;6.05;2.22;;;22.10;99.90;;;;;;4193740;28;20252;-75
2022/05/26 10:20:35;;;;;;;4.07;2.03;;;22.00;99.90;;;;;;4193563;28;20215;-75
2022/05/26 10:22:47;;;;;;;4.85;2.22;;;22.10;99.90;;;;;;4193787;28;20219;-76
2022/05/26 10:24:58;;;;;;;4.82;2.33;;;22.10;99.90;;;;;;4193485;28;20211;-75
2022/05/26 10:27:10;;;;;;;3.75;2.08;;;22.10;99.90;;;;;;4193023;28;20252;-76
2022/05/26 10:29:26;;;;;;;5.90;2.55;;;22.10;99.90;;;;;;4193830;28;20214;-75
2022/05/26 10:31:41;;;;;;;4.63;2.15;;;22.10;99.90;;;;;;4193121;28;20613;-75
2022/05/26 10:33:58;;;;;;;5.10;2.13;;;22.10;99.90;;;;;;4193492;28;20215;-76
2022/05/26 10:36:11;;;;;;;4.13;2.10;;;22.10;99.90;;;;;;4192071;28;20633;-76
2022/05/26 10:38:32;;;;;;;5.30;2.15;;;22.10;99.90;;;;;;4194331;28;20219;-76
2022/05/26 10:40:43;;;;;;;5.95;2.50;;;22.20;99.90;;;;;;4193343;28;20227;-75
2022/05/26 10:42:50;;;;;;;5.95;2.08;;;22.20;99.90;;;;;;4193854;28;20296;-76
2022/05/26 10:45:06;;;;;;;6.00;2.22;;;22.10;99.90;;;;;;4194326;28;20215;-75
2022/05/26 10:47:14;;;;;;;4.05;2.00;;;22.20;99.90;;;;;;4194224;28;20223;-75
2022/05/26 10:49:22;;;;;;;5.63;2.60;;;22.10;99.90;;;;;;4194345;28;20271;-76
2022/05/26 10:51:32;;;;;;;4.75;2.08;;;22.20;99.90;;;;;;4193785;28;20275;-75
2022/05/26 10:53:40;;;;;;;5.03;2.05;;;22.20;99.90;;;;;;4193472;28;20218;-75
2022/05/26 10:55:50;;;;;;;4.28;2.00;;;22.20;99.90;;;;;;4193707;28;20218;-76
2022/05/26 10:57:57;;;;;;;4.47;2.00;;;22.20;99.90;;;;;;4192713;28;20218;-76
2022/05/26 11:00:05;;;;;;;6.07;2.20;;;22.20;99.90;;;;;;4193948;28;20214;-76
2022/05/26 11:02:16;;;;;;;4.32;1.90;;;22.20;99.90;;;;;;4193171;28;20291;-75
2022/05/26 11:04:26;;;;;;;5.63;2.47;;;22.20;99.90;;;;;;4193759;28;20227;-76
2022/05/26 11:06:33;;;;;;;4.05;2.22;;;22.20;99.90;;;;;;4193087;28;20215;-76
2022/05/26 11:08:40;;;;;;;6.22;2.35;;;22.20;99.90;;;;;;4193504;28;20235;-76
2022/05/26 11:10:47;;;;;;;3.95;2.10;;;22.20;99.90;;;;;;4193815;28;20623;-76
2022/05/26 11:12:54;;;;;;;4.63;2.10;;;22.20;99.90;;;;;;4194155;28;20671;-76
2022/05/26 11:17:34;;;;;;;2.95;1.58;;;22.20;99.90;;;;;;4198090;28;20703;-75
2022/05/26 11:19:40;;;;;;;4.95;1.83;;;22.20;99.90;;;;;;4193488;28;20222;-76
2022/05/26 11:21:42;;;;;;;5.60;2.25;;;22.30;99.90;;;;;;4193078;28;20758;-76
2022/05/26 11:23:45;;;;;;;5.75;2.22;;;22.20;99.90;;;;;;4193509;28;20280;-76
2022/05/26 11:25:57;;;;;;;4.93;2.03;;;22.30;99.90;;;;;;4193413;28;20325;-76
2022/05/26 11:28:07;;;;;;;4.65;2.03;;;22.20;99.90;;;;;;4192012;28;20655;-75